Saturday, July 21, 2018, 3:24 AM EDT
Back to Local

KIDI, Indiana / Stewart Field

Location: Indiana, PA, United States Lat: 40.633
Local Time: 3:24 AM EDT ( 7:24 GMT) Lon: -79.1
Time Zone: US/Eastern Elev: 1407 ft

Show me the last for .
Show Decoded

2018-07-21 03:15 METAR KIDI 210715Z AUTO 14012G17KT 10SM FEW080 21/15 A2997 RMK A01 =
2018-07-21 02:55 METAR KIDI 210655Z AUTO 15013KT 10SM FEW110 21/15 A2997 RMK A01 =
2018-07-21 02:35 METAR KIDI 210635Z AUTO 14012G21KT 10SM FEW110 21/15 A2997 RMK A01 =
2018-07-21 02:15 METAR KIDI 210615Z AUTO 16014KT 10SM SCT075 BKN085 22/15 A2998 RMK A01 =
2018-07-21 01:55 METAR KIDI 210555Z AUTO 16012G18KT 10SM BKN075 OVC085 22/16 A2998 RMK A01 =
2018-07-21 01:35 METAR KIDI 210535Z AUTO 16010G17KT 120V190 10SM BKN065 OVC075 22/16 A3000 RMK
                 A01 =
2018-07-21 01:15 METAR KIDI 210515Z AUTO 18012G19KT 160V230 10SM OVC065 22/16 A3001 RMK A01 =
2018-07-21 00:55 METAR KIDI 210455Z AUTO 19006G19KT 10SM BKN070 OVC080 22/16 A3001 RMK A01 =
2018-07-21 00:35 METAR KIDI 210435Z AUTO 15010G17KT 10SM SCT080 BKN100 22/16 A3000 RMK A01 =
2018-07-21 00:15 METAR KIDI 210415Z AUTO 15013G22KT 10SM FEW075 BKN110 23/16 A3000 RMK A01 =
2018-07-20 23:55 METAR KIDI 210355Z AUTO 15008G19KT 10SM FEW060 BKN070 BKN110 23/16 A3000 RMK A01
                 =
2018-07-20 23:35 METAR KIDI 210335Z AUTO 18009G15KT 160V220 10SM BKN065 OVC100 23/16 A3002 RMK
                 A01 =
2018-07-20 23:15 METAR KIDI 210315Z AUTO 19007KT 10SM OVC070 23/16 A3002 RMK A01 =
2018-07-20 22:55 METAR KIDI 210255Z AUTO VRB05KT 10SM OVC065 23/16 A3002 RMK A01 =
2018-07-20 22:35 METAR KIDI 210235Z AUTO VRB03KT 10SM OVC070 23/16 A3003 RMK A01 =
2018-07-20 22:15 METAR KIDI 210215Z AUTO 22006G13KT 10SM BKN070 23/16 A3002 RMK A01 =
2018-07-20 21:55 METAR KIDI 210155Z AUTO VRB04G13KT 10SM FEW075 23/16 A3000 RMK A01 =
2018-07-20 21:35 METAR KIDI 210135Z AUTO 17009KT 140V200 10SM SCT075 24/17 A3000 RMK A01 =
2018-07-20 21:15 METAR KIDI 210115Z AUTO VRB04G14KT 10SM FEW070 24/17 A3000 RMK A01 =
2018-07-20 20:55 METAR KIDI 210055Z AUTO 15006G12KT 10SM CLR 24/17 A2999 RMK A01 =
2018-07-20 20:35 METAR KIDI 210035Z AUTO 15009G16KT 110V170 10SM SCT080 24/17 A2999 RMK A01 =
2018-07-20 20:15 METAR KIDI 210015Z AUTO 15009KT 10SM FEW070 BKN085 25/17 A3000 RMK A01 =
2018-07-20 19:55 METAR KIDI 202355Z AUTO 16008G14KT 10SM BKN070 BKN080 25/17 A3000 RMK A01 =
2018-07-20 19:35 METAR KIDI 202335Z AUTO 17008G13KT 140V210 10SM OVC070 25/18 A3001 RMK A01 =
2018-07-20 19:15 METAR KIDI 202315Z AUTO 16008G19KT 10SM OVC070 26/17 A3001 RMK A01 =
2018-07-20 18:55 METAR KIDI 202255Z AUTO 16009G20KT 10SM SCT070 26/17 A3001 RMK A01 =
2018-07-20 18:35 METAR KIDI 202235Z AUTO 15012G21KT 10SM CLR 27/17 A3000 RMK A01 =
2018-07-20 18:15 METAR KIDI 202215Z AUTO 16014G19KT 10SM CLR 27/18 A3000 RMK A01 =
2018-07-20 17:55 METAR KIDI 202155Z AUTO 15007G17KT 10SM CLR 28/18 A3000 RMK A01 =
2018-07-20 17:35 METAR KIDI 202135Z AUTO 16013G21KT 120V190 10SM CLR 28/18 A3000 RMK A01 =
2018-07-20 17:15 METAR KIDI 202115Z AUTO 16013G19KT 10SM CLR 28/18 A3001 RMK A01 =
2018-07-20 16:55 METAR KIDI 202055Z AUTO 15011G19KT 120V180 10SM CLR 28/18 A3001 RMK A01 =
2018-07-20 16:35 METAR KIDI 202035Z AUTO 13015G27KT 10SM FEW046 28/18 A3001 RMK A01 =
2018-07-20 16:15 METAR KIDI 202015Z AUTO 15014G19KT 130V190 10SM CLR 28/18 A3002 RMK A01 =
2018-07-20 15:55 METAR KIDI 201955Z AUTO 16012G21KT 10SM CLR 28/17 A3003 RMK A01 =
2018-07-20 15:35 METAR KIDI 201935Z AUTO 16008G17KT 10SM CLR 27/18 A3004 RMK A01 =
2018-07-20 15:15 METAR KIDI 201915Z AUTO 14012G20KT 10SM CLR 27/17 A3005 RMK A01 =
2018-07-20 14:55 METAR KIDI 201855Z AUTO 15013G23KT 130V190 10SM CLR 28/17 A3005 RMK A01 =
2018-07-20 14:35 METAR KIDI 201835Z AUTO 15011G17KT 120V180 10SM CLR 28/17 A3006 RMK A01 =
2018-07-20 14:15 METAR KIDI 201815Z AUTO 16011G17KT 10SM FEW060 28/17 A3007 RMK A01 =
2018-07-20 13:55 METAR KIDI 201755Z AUTO 17012KT 10SM SCT060 28/17 A3007 RMK A01 =
2018-07-20 13:35 METAR KIDI 201735Z AUTO 17010G17KT 10SM FEW060 FEW070 28/17 A3007 RMK A01 =
2018-07-20 13:15 METAR KIDI 201715Z AUTO 15013G18KT 10SM SCT060 SCT070 28/16 A3008 RMK A01 =
2018-07-20 12:55 METAR KIDI 201655Z AUTO 16010G17KT 10SM FEW060 27/17 A3009 RMK A01 =
2018-07-20 12:35 METAR KIDI 201635Z AUTO 16008G18KT 10SM CLR 27/17 A3009 RMK A01 =
2018-07-20 12:15 METAR KIDI 201615Z AUTO 16010KT 10SM FEW060 FEW070 26/17 A3009 RMK A01 =
2018-07-20 11:55 METAR KIDI 201555Z AUTO 16008KT 10SM CLR 27/18 A3009 RMK A01 =
2018-07-20 11:35 METAR KIDI 201535Z AUTO 16010KT 10SM CLR 26/18 A3010 RMK A01 =
2018-07-20 11:15 METAR KIDI 201515Z AUTO 15008G15KT 10SM FEW060 26/18 A3010 RMK A01 =
2018-07-20 10:55 METAR KIDI 201455Z AUTO 18011KT 9SM FEW060 25/17 A3010 RMK A01 =
2018-07-20 10:35 METAR KIDI 201435Z AUTO 15009KT 10SM CLR 25/17 A3010 RMK A01 =
2018-07-20 10:15 METAR KIDI 201415Z AUTO 17010G20KT 10SM CLR 25/17 A3011 RMK A01 =
2018-07-20 09:55 METAR KIDI 201355Z AUTO 16008G15KT 10SM CLR 25/17 A3011 RMK A01 =
2018-07-20 09:35 METAR KIDI 201335Z AUTO 16009G15KT 10SM CLR 24/17 A3011 RMK A01 =
2018-07-20 09:15 METAR KIDI 201315Z AUTO 17010KT 10SM CLR 23/17 A3011 RMK A01 =
2018-07-20 08:55 METAR KIDI 201255Z AUTO 14007KT 10SM CLR 23/17 A3011 RMK A01 =
2018-07-20 08:35 METAR KIDI 201235Z AUTO 22004KT 10SM CLR 22/16 A3013 RMK A01 =
2018-07-20 08:15 METAR KIDI 201215Z AUTO VRB06G11KT 10SM CLR 22/16 A3012 RMK A01 =
2018-07-20 07:55 METAR KIDI 201155Z AUTO 19006KT 10SM CLR 21/16 A3012 RMK A01 =
2018-07-20 07:35 METAR KIDI 201135Z AUTO 15009G14KT 10SM CLR 21/15 A3012 RMK A01 =
2018-07-20 07:15 METAR KIDI 201115Z AUTO 15009KT 10SM CLR 21/15 A3011 RMK A01 =
2018-07-20 06:55 METAR KIDI 201055Z AUTO 16007KT 10SM CLR 20/15 A3011 RMK A01 =
2018-07-20 06:35 METAR KIDI 201035Z AUTO 18007KT 10SM CLR 19/15 A3012 RMK A01 =
2018-07-20 06:15 METAR KIDI 201015Z AUTO 17005KT 10SM CLR 19/15 A3012 RMK A01 =
2018-07-20 05:55 METAR KIDI 200955Z AUTO 00000KT 10SM CLR 17/15 A3011 RMK A01 =
2018-07-20 05:35 METAR KIDI 200935Z AUTO 00000KT 10SM CLR 18/15 A3011 RMK A01 =
2018-07-20 05:15 METAR KIDI 200915Z AUTO VRB03KT 10SM CLR 19/15 A3011 RMK A01 =
2018-07-20 04:55 METAR KIDI 200855Z AUTO 00000KT 10SM CLR 19/15 A3012 RMK A01 =
2018-07-20 04:35 METAR KIDI 200835Z AUTO 19006KT 10SM CLR 19/15 A3011 RMK A01 =
2018-07-20 04:15 METAR KIDI 200815Z AUTO 00000KT 10SM CLR 19/15 A3011 RMK A01 =
2018-07-20 03:55 METAR KIDI 200755Z AUTO 00000KT 10SM CLR 19/15 A3012 RMK A01 =
2018-07-20 03:35 METAR KIDI 200735Z AUTO 19006G12KT 10SM CLR 20/15 A3011 RMK A01 =

Support USWX by starting your Amazon purchase here.